Time;durP1;ratioP1;P1;durP2;ratioP2;P2;SDS_P1;SDS_P2;PMS_P1;PMS_P2;Temp;Humidity;BMP_temperature;BMP_pressure;BME280_temperature;BME280_humidity;BME280_pressure;Samples;Min_cycle;Max_cycle;Signal;HPM_P1;HPM_P2
2023/06/17 00:01:15;;;;;;;6.35;4.90;;;;;;;14.51;61.14;101723.31;4995445;28;20411;-77
2023/06/17 00:03:42;;;;;;;6.45;5.10;;;;;;;14.49;61.73;101729.09;4994441;28;20101;-77
2023/06/17 00:06:10;;;;;;;8.18;5.18;;;;;;;14.46;62.01;101721.22;4995254;28;20077;-77
2023/06/17 00:08:37;;;;;;;9.35;5.40;;;;;;;14.39;62.33;101727.59;4993774;28;20055;-78
2023/06/17 00:11:04;;;;;;;7.18;5.07;;;;;;;14.35;62.50;101725.03;4995391;28;20141;-78
2023/06/17 00:13:32;;;;;;;5.85;5.25;;;;;;;14.22;62.98;101720.97;4997293;28;20043;-78
2023/06/17 00:15:59;;;;;;;5.45;4.93;;;;;;;14.19;63.26;101727.19;4995207;28;20047;-77
2023/06/17 00:18:26;;;;;;;8.18;4.78;;;;;;;14.11;63.50;101726.72;4977267;28;20145;-78
2023/06/17 00:20:53;;;;;;;11.75;4.72;;;;;;;14.08;63.48;101729.53;4994607;28;20047;-76
2023/06/17 00:23:20;;;;;;;5.55;5.10;;;;;;;14.02;63.47;101721.31;4994711;28;20047;-76
2023/06/17 00:25:48;;;;;;;7.10;4.80;;;;;;;13.93;64.50;101718.59;4994707;28;20054;-76
2023/06/17 00:28:15;;;;;;;7.32;4.88;;;;;;;13.90;63.83;101722.91;4994995;28;20137;-76
2023/06/17 00:30:46;;;;;;;8.70;4.72;;;;;;;13.90;63.71;101714.13;4992772;28;20046;-76
2023/06/17 00:33:13;;;;;;;9.07;4.50;;;;;;;13.86;64.00;101703.56;4995083;28;20047;-76
2023/06/17 00:35:40;;;;;;;5.00;4.57;;;;;;;13.79;63.88;101701.13;4976221;28;20109;-76
2023/06/17 00:38:07;;;;;;;6.30;4.93;;;;;;;13.71;64.66;101702.56;4994404;28;20487;-76
2023/06/17 00:40:34;;;;;;;5.22;4.80;;;;;;;13.53;65.21;101700.53;4976850;28;20058;-76
2023/06/17 00:43:01;;;;;;;7.80;4.60;;;;;;;13.44;65.13;101702.41;4993260;28;20058;-76
2023/06/17 00:45:27;;;;;;;5.40;5.00;;;;;;;13.42;64.96;101694.81;4978217;28;20061;-76
2023/06/17 00:47:55;;;;;;;5.35;4.85;;;;;;;13.44;65.44;101699.72;4997021;28;20050;-76
2023/06/17 00:50:22;;;;;;;6.53;4.97;;;;;;;13.41;64.83;101689.91;4992708;28;20535;-76
2023/06/17 00:52:54;;;;;;;7.82;5.18;;;;;;;13.41;65.67;101689.91;4993773;28;20042;-76
2023/06/17 00:55:21;;;;;;;6.40;4.90;;;;;;;13.36;66.45;101688.53;4994594;28;20043;-76
2023/06/17 00:57:49;;;;;;;7.03;4.72;;;;;;;13.34;66.48;101690.88;4976431;28;20046;-76
2023/06/17 01:00:15;;;;;;;11.25;5.20;;;;;;;13.30;67.25;101693.69;4994458;28;20587;-76
2023/06/17 01:02:44;;;;;;;5.60;5.15;;;;;;;13.27;66.82;101691.13;4993444;28;20045;-76
2023/06/17 01:05:16;;;;;;;5.53;4.97;;;;;;;13.23;66.97;101688.56;4994871;28;20039;-76
2023/06/17 01:08:19;;;;;;;6.53;5.22;;;;;;;13.17;66.61;101687.66;4993697;28;20050;-76
2023/06/17 01:10:54;;;;;;;;;;;;;;;13.14;65.14;101680.47;4976880;28;20142;-76
2023/06/17 01:13:26;;;;;;;5.80;5.30;;;;;;;13.08;66.85;101679.53;4994333;28;19926;-76
2023/06/17 01:15:54;;;;;;;8.57;5.93;;;;;;;13.03;67.48;101683.50;4993643;28;20069;-75
2023/06/17 01:18:21;;;;;;;6.55;5.80;;;;;;;12.97;68.13;101682.56;4976217;28;20125;-76
2023/06/17 01:20:51;;;;;;;5.97;5.38;;;;;;;12.91;68.39;101684.28;4996591;28;20077;-76
2023/06/17 01:23:21;;;;;;;8.48;5.60;;;;;;;12.89;67.96;101685.91;4976599;28;20042;-75
2023/06/17 01:25:49;;;;;;;5.80;5.10;;;;;;;12.84;69.11;101683.78;4992194;28;20046;-75
2023/06/17 01:28:20;;;;;;;6.75;5.35;;;;;;;12.73;69.48;101686.81;4994132;28;20138;-75
2023/06/17 01:30:47;;;;;;;6.47;5.03;;;;;;;12.68;69.45;101690.03;4992288;28;20062;-75
2023/06/17 01:33:15;;;;;;;5.80;4.95;;;;;;;12.61;69.67;101688.31;4976390;28;20055;-75
2023/06/17 01:35:50;;;;;;;5.45;5.05;;;;;;;12.59;69.36;101692.59;4975613;28;20051;-76
2023/06/17 01:38:34;;;;;;;5.63;5.22;;;;;;;12.56;69.38;101686.19;4993786;28;20054;-77
2023/06/17 01:41:06;;;;;;;8.55;5.00;;;;;;;12.52;69.77;101690.88;4975925;28;20078;-77
2023/06/17 01:43:35;;;;;;;5.63;5.13;;;;;;;12.49;69.76;101683.72;4959338;28;20058;-77
2023/06/17 01:46:04;;;;;;;9.35;5.47;;;;;;;12.46;71.01;101689.19;4993732;28;20047;-77
2023/06/17 01:48:30;;;;;;;5.50;4.47;;;;;;;12.48;70.49;101698.25;4975850;28;20821;-77
2023/06/17 01:50:57;;;;;;;5.43;5.03;;;;;;;12.47;70.67;101683.41;4991740;28;20104;-76
2023/06/17 01:53:27;;;;;;;5.68;5.18;;;;;;;12.44;70.87;101691.53;4975762;28;20102;-78
2023/06/17 01:55:54;;;;;;;6.85;5.43;;;;;;;12.37;70.70;101681.84;4995931;28;20051;-77
2023/06/17 01:58:21;;;;;;;5.72;5.32;;;;;;;12.36;70.57;101685.69;4975776;28;20573;-77
2023/06/17 02:00:47;;;;;;;5.93;5.53;;;;;;;12.35;71.10;101678.84;4991711;28;20539;-77
2023/06/17 02:03:15;;;;;;;7.25;6.13;;;;;;;12.30;71.39;101676.72;4993652;28;20053;-77
2023/06/17 02:05:42;;;;;;;5.60;5.18;;;;;;;12.27;71.12;101675.66;4974608;28;20050;-76
2023/06/17 02:08:12;;;;;;;6.65;5.90;;;;;;;12.27;71.90;101675.66;4992410;28;20130;-76
2023/06/17 02:10:38;;;;;;;7.25;5.78;;;;;;;12.25;71.63;101683.34;4993042;28;20039;-76
2023/06/17 02:13:05;;;;;;;5.55;5.15;;;;;;;12.23;72.13;101683.00;4975656;28;20055;-76
2023/06/17 02:15:31;;;;;;;7.97;5.07;;;;;;;12.16;72.14;101680.56;4991420;28;20082;-76
2023/06/17 02:17:59;;;;;;;6.57;5.82;;;;;;;12.11;71.90;101678.41;4991545;28;20728;-76
2023/06/17 02:20:26;;;;;;;5.50;4.97;;;;;;;12.07;71.75;101680.44;4991094;28;20058;-76
2023/06/17 02:22:53;;;;;;;6.40;5.90;;;;;;;12.06;72.02;101672.84;4992687;28;20046;-75
2023/06/17 02:25:21;;;;;;;8.98;5.75;;;;;;;12.05;72.28;101680.13;4991536;28;20082;-75
2023/06/17 02:27:48;;;;;;;6.05;5.55;;;;;;;11.99;72.06;101677.25;4991242;28;20106;-78
2023/06/17 02:30:15;;;;;;;5.88;5.47;;;;;;;11.96;72.83;101674.69;4996520;28;20047;-75
2023/06/17 02:32:41;;;;;;;6.03;5.53;;;;;;;11.91;72.56;101661.88;4991123;28;20051;-77
2023/06/17 02:35:10;;;;;;;7.47;5.60;;;;;;;11.86;72.85;101662.41;4974975;28;20102;-75
2023/06/17 02:37:37;;;;;;;5.80;5.30;;;;;;;11.78;73.48;101661.09;4992405;28;20058;-77
2023/06/17 02:40:08;;;;;;;7.57;5.70;;;;;;;11.72;73.59;101660.84;4959702;28;20053;-77
2023/06/17 02:42:36;;;;;;;6.07;5.53;;;;;;;11.69;73.75;101662.44;4974969;28;20058;-77
2023/06/17 02:45:03;;;;;;;6.55;5.97;;;;;;;11.61;74.86;101658.47;4992744;28;20098;-77
2023/06/17 02:47:30;;;;;;;6.82;6.10;;;;;;;11.59;75.19;101652.09;4991506;28;20160;-74
2023/06/17 02:49:57;;;;;;;6.85;6.25;;;;;;;11.60;75.05;101654.31;4990951;28;20047;-77
2023/06/17 02:52:24;;;;;;;6.13;5.63;;;;;;;11.58;74.80;101664.69;4991134;28;20057;-77
2023/06/17 02:54:51;;;;;;;7.82;5.72;;;;;;;11.60;74.10;101661.56;4974835;28;20061;-77
2023/06/17 02:57:20;;;;;;;6.57;5.97;;;;;;;11.57;73.95;101655.19;4974659;28;20047;-76
2023/06/17 02:59:47;;;;;;;6.65;6.07;;;;;;;11.54;74.74;101657.94;4974552;28;20507;-76
2023/06/17 03:02:14;;;;;;;6.38;5.88;;;;;;;11.50;74.67;101651.97;4991048;28;20066;-77
2023/06/17 03:04:41;;;;;;;6.72;6.13;;;;;;;11.41;74.77;101657.91;4993864;28;20042;-75
2023/06/17 03:07:07;;;;;;;6.63;5.93;;;;;;;11.40;74.84;101656.41;4991620;28;20051;-76
2023/06/17 03:09:34;;;;;;;6.18;5.68;;;;;;;11.37;74.82;101662.59;4973237;28;20054;-75
2023/06/17 03:12:02;;;;;;;7.43;6.32;;;;;;;11.33;75.71;101661.94;4973366;28;20492;-75
2023/06/17 03:14:30;;;;;;;7.40;5.68;;;;;;;11.24;75.87;101654.53;4989315;28;20057;-76
2023/06/17 03:16:59;;;;;;;6.43;5.90;;;;;;;11.20;76.36;101656.56;4989318;28;20073;-76
2023/06/17 03:19:27;;;;;;;8.10;6.65;;;;;;;11.18;76.80;101658.91;4988689;28;20054;-75
2023/06/17 03:21:54;;;;;;;6.75;6.03;;;;;;;11.21;76.42;101657.31;4992389;28;20122;-76
2023/06/17 03:24:25;;;;;;;7.00;6.30;;;;;;;11.19;77.12;101657.75;4976795;28;20212;-75
2023/06/17 03:26:53;;;;;;;7.50;6.80;;;;;;;11.18;77.04;101650.91;4994252;28;20479;-75
2023/06/17 03:29:20;;;;;;;7.60;6.47;;;;;;;11.21;76.04;101652.72;4976888;28;20043;-76
2023/06/17 03:31:50;;;;;;;7.30;6.60;;;;;;;11.22;76.78;101645.47;4976904;28;20097;-75
2023/06/17 03:34:17;;;;;;;7.00;6.30;;;;;;;11.19;76.77;101643.66;4994829;28;20046;-76
2023/06/17 03:36:47;;;;;;;7.22;6.55;;;;;;;11.20;77.81;101645.16;4977453;28;20039;-75
2023/06/17 03:39:14;;;;;;;8.82;6.85;;;;;;;11.22;77.91;101645.47;4995672;28;20047;-75
2023/06/17 03:41:41;;;;;;;10.07;6.90;;;;;;;11.26;78.51;101654.13;4976462;28;20094;-75
2023/06/17 03:44:08;;;;;;;7.18;6.57;;;;;;;11.24;78.46;101649.22;4960949;28;20055;-75
2023/06/17 03:46:35;;;;;;;10.07;6.40;;;;;;;11.22;78.05;101653.47;4992359;28;20089;-76
2023/06/17 03:49:02;;;;;;;6.95;6.35;;;;;;;11.21;77.59;101655.38;4976714;28;20054;-74
2023/06/17 03:51:29;;;;;;;6.78;6.18;;;;;;;11.20;77.52;101653.88;4976279;28;20057;-74
2023/06/17 03:53:56;;;;;;;8.05;6.53;;;;;;;11.21;77.85;101649.31;4994385;28;20075;-74
2023/06/17 03:56:23;;;;;;;7.30;6.60;;;;;;;11.22;77.54;101650.81;4976344;28;20530;-74
2023/06/17 03:58:53;;;;;;;7.25;6.55;;;;;;;11.19;77.75;101649.00;4992670;28;20489;-74
2023/06/17 04:01:20;;;;;;;7.85;7.15;;;;;;;11.21;78.28;101651.97;4992168;28;20063;-74
2023/06/17 04:03:47;;;;;;;7.28;6.65;;;;;;;11.21;78.46;101654.63;4992404;28;20475;-75
2023/06/17 04:06:14;;;;;;;10.38;7.53;;;;;;;11.20;78.25;101653.13;4976041;28;20492;-74
2023/06/17 04:08:43;;;;;;;8.30;7.50;;;;;;;11.20;78.68;101653.88;4957576;28;1044281;-74
2023/06/17 04:11:13;;;;;;;8.45;7.60;;;;;;;11.20;78.84;101643.22;4977342;28;20055;-74
2023/06/17 04:13:39;;;;;;;8.07;7.28;;;;;;;11.20;79.10;101648.56;4995409;28;20505;-74
2023/06/17 04:16:07;;;;;;;10.88;7.88;;;;;;;11.28;79.64;101644.53;4995578;28;20546;-73
2023/06/17 04:18:33;;;;;;;9.88;8.20;;;;;;;11.35;79.96;101649.69;4992553;28;20782;-76
2023/06/17 04:21:00;;;;;;;8.85;7.90;;;;;;;11.39;79.70;101654.91;4995013;28;20047;-74
2023/06/17 04:23:29;;;;;;;9.63;8.05;;;;;;;11.43;79.79;101649.50;4976986;28;20170;-75
2023/06/17 04:25:56;;;;;;;8.82;8.02;;;;;;;11.51;79.16;101650.78;4977007;28;20121;-76
2023/06/17 04:28:23;;;;;;;10.60;8.48;;;;;;;11.59;79.46;101655.50;4994432;28;20126;-74
2023/06/17 04:30:51;;;;;;;9.85;8.85;;;;;;;11.62;79.26;101653.91;4975987;28;20047;-74
2023/06/17 04:33:18;;;;;;;10.02;8.40;;;;;;;11.70;80.11;101655.19;4994165;28;20515;-74
2023/06/17 04:35:47;;;;;;;10.85;8.77;;;;;;;11.72;79.32;101658.19;4976774;28;20393;-74
2023/06/17 04:38:14;;;;;;;11.18;8.48;;;;;;;11.77;79.87;101663.03;4993045;28;20069;-74
2023/06/17 04:40:42;;;;;;;9.88;8.60;;;;;;;12.07;79.49;101667.09;4976145;28;20484;-74
2023/06/17 04:43:09;;;;;;;9.48;8.30;;;;;;;12.27;78.47;101666.91;4977045;28;20102;-74
2023/06/17 04:45:36;;;;;;;13.70;8.43;;;;;;;12.28;78.16;101663.78;4975570;28;20043;-74
2023/06/17 04:48:05;;;;;;;8.60;7.80;;;;;;;12.60;77.73;101662.78;4993476;28;20133;-74
2023/06/17 04:50:33;;;;;;;9.80;8.80;;;;;;;14.00;73.58;101654.06;4976751;28;20042;-74
2023/06/17 04:53:10;;;;;;;9.57;8.15;;;;;;;15.91;67.51;101656.03;4994545;28;20090;-74
2023/06/17 04:55:37;;;;;;;10.23;8.38;;;;;;;17.29;62.14;101659.28;4976218;28;20058;-74
2023/06/17 04:58:07;;;;;;;10.10;8.15;;;;;;;19.19;56.78;101659.09;4976648;28;20089;-74
2023/06/17 05:00:39;;;;;;;10.98;8.73;;;;;;;20.97;51.22;101655.91;4975711;28;20542;-74
2023/06/17 05:03:07;;;;;;;9.02;8.15;;;;;;;22.08;47.53;101665.97;4992795;28;20504;-74
2023/06/17 05:05:35;;;;;;;12.23;8.57;;;;;;;22.97;44.94;101664.84;4993647;28;20138;-75
2023/06/17 05:08:03;;;;;;;9.23;8.20;;;;;;;23.67;43.35;101659.84;4992115;28;20046;-74
2023/06/17 05:10:30;;;;;;;8.90;8.02;;;;;;;24.04;42.23;101661.94;4976506;28;20047;-75
2023/06/17 05:12:56;;;;;;;9.45;8.63;;;;;;;24.36;42.13;101659.38;4992673;28;20057;-74
2023/06/17 05:15:25;;;;;;;9.93;8.77;;;;;;;24.71;41.33;101663.84;4991992;28;20133;-75
2023/06/17 05:17:53;;;;;;;10.05;8.85;;;;;;;25.03;40.15;101659.19;4992244;28;20050;-74
2023/06/17 05:20:19;;;;;;;11.30;8.73;;;;;;;25.36;40.52;101659.91;4960027;28;20565;-74
2023/06/17 05:22:46;;;;;;;9.95;8.60;;;;;;;25.66;40.20;101665.09;4995561;28;20051;-74
2023/06/17 05:25:14;;;;;;;9.40;8.60;;;;;;;25.87;39.57;101668.69;4976884;28;20051;-74
2023/06/17 05:27:40;;;;;;;9.80;8.65;;;;;;;26.05;39.17;101669.81;4991750;28;20082;-74
2023/06/17 05:30:08;;;;;;;9.35;8.48;;;;;;;26.14;39.56;101670.13;4975664;28;20496;-74
2023/06/17 05:32:36;;;;;;;8.93;8.05;;;;;;;26.25;39.34;101663.72;4991748;28;20511;-75
2023/06/17 05:35:04;;;;;;;12.18;8.57;;;;;;;26.17;39.34;101665.63;4976085;28;20062;-74
2023/06/17 05:37:32;;;;;;;9.13;8.25;;;;;;;26.27;39.56;101671.38;4975748;28;20137;-75
2023/06/17 05:40:00;;;;;;;9.32;8.15;;;;;;;26.25;40.17;101664.44;4992478;28;20054;-75
2023/06/17 05:42:27;;;;;;;9.20;7.88;;;;;;;26.49;40.34;101662.72;4974958;28;20054;-76
2023/06/17 05:44:54;;;;;;;8.30;7.53;;;;;;;26.69;40.94;101669.50;4975174;28;20118;-76
2023/06/17 05:47:21;;;;;;;8.23;7.53;;;;;;;26.34;41.30;101671.50;4975670;28;20775;-75
2023/06/17 05:49:48;;;;;;;8.48;7.80;;;;;;;25.79;41.29;101662.38;4993210;28;20518;-75
2023/06/17 05:52:15;;;;;;;8.15;7.45;;;;;;;25.22;42.53;101664.56;4993608;28;20050;-75
2023/06/17 05:54:41;;;;;;;8.23;7.35;;;;;;;24.86;43.56;101667.56;4975424;28;20057;-75
2023/06/17 05:57:08;;;;;;;7.15;6.57;;;;;;;25.09;44.00;101667.28;4993373;28;20054;-77
2023/06/17 05:59:35;;;;;;;7.25;6.55;;;;;;;25.25;43.16;101674.44;4992737;28;20064;-75
2023/06/17 06:02:02;;;;;;;6.75;6.10;;;;;;;25.14;42.15;101666.47;4975573;28;20065;-75
2023/06/17 06:04:30;;;;;;;6.25;5.68;;;;;;;25.06;41.65;101660.16;4975511;28;20047;-77
2023/06/17 06:06:56;;;;;;;6.10;5.32;;;;;;;24.84;41.41;101667.34;4993064;28;20047;-77
2023/06/17 06:09:23;;;;;;;8.73;6.30;;;;;;;24.74;41.71;101665.53;4990808;28;20453;-77
2023/06/17 06:11:50;;;;;;;8.50;5.25;;;;;;;24.47;41.49;101668.13;4991150;28;20130;-78
2023/06/17 06:14:17;;;;;;;6.40;4.60;;;;;;;24.49;41.68;101665.63;4975682;28;20047;-76
2023/06/17 06:16:46;;;;;;;5.50;5.00;;;;;;;24.40;41.98;101670.69;4975389;28;20189;-77
2023/06/17 06:19:14;;;;;;;7.05;5.18;;;;;;;24.23;40.71;101662.72;4976497;28;20432;-74
2023/06/17 06:21:42;;;;;;;4.97;4.68;;;;;;;24.26;40.30;101667.16;4975778;28;20114;-79
2023/06/17 06:24:08;;;;;;;6.03;4.50;;;;;;;24.39;40.43;101669.94;4976378;28;20043;-76
2023/06/17 06:26:37;;;;;;;5.13;4.72;;;;;;;24.45;40.45;101667.91;4975897;28;20035;-76
2023/06/17 06:29:07;;;;;;;5.40;4.47;;;;;;;24.17;40.14;101662.03;4976411;28;20125;-78
2023/06/17 06:31:33;;;;;;;4.95;4.63;;;;;;;23.96;39.66;101661.06;4976458;28;20051;-79
2023/06/17 06:34:00;;;;;;;5.80;4.82;;;;;;;23.90;39.07;101663.84;4987260;28;20053;-78
2023/06/17 06:36:27;;;;;;;5.07;4.43;;;;;;;23.99;38.52;101668.94;4976084;28;20082;-78
2023/06/17 06:38:54;;;;;;;5.68;4.50;;;;;;;24.08;39.07;101671.28;4975956;28;20047;-78
2023/06/17 06:41:20;;;;;;;4.70;4.30;;;;;;;24.19;37.96;101663.00;4959277;28;20054;-75
2023/06/17 06:44:00;;;;;;;9.38;4.40;;;;;;;24.16;38.29;101668.72;4975931;28;20049;-76
2023/06/17 06:46:26;;;;;;;5.63;4.40;;;;;;;24.03;38.98;101660.47;4975527;28;20051;-78
2023/06/17 06:48:53;;;;;;;6.05;4.05;;;;;;;23.93;37.71;101662.81;4991933;28;20047;-79
2023/06/17 06:51:20;;;;;;;4.25;3.88;;;;;;;23.83;36.59;101665.13;4991699;28;20135;-75
2023/06/17 06:53:48;;;;;;;4.82;4.20;;;;;;;23.90;36.76;101658.41;4975177;28;20431;-79
2023/06/17 06:56:15;;;;;;;4.35;4.05;;;;;;;24.02;36.65;101665.16;4975102;28;20051;-78
2023/06/17 06:58:42;;;;;;;4.50;4.10;;;;;;;24.02;36.11;101664.44;4992026;28;20492;-78
2023/06/17 07:01:10;;;;;;;4.25;3.83;;;;;;;24.06;35.94;101660.19;4959937;28;20047;-79
2023/06/17 07:03:37;;;;;;;4.22;3.92;;;;;;;24.32;35.37;101661.66;4993196;28;20043;-79
2023/06/17 07:06:06;;;;;;;4.18;3.80;;;;;;;24.28;36.89;101661.94;4985851;28;20075;-76
2023/06/17 07:08:33;;;;;;;4.22;3.95;;;;;;;24.48;35.00;101664.16;4975238;28;20142;-76
2023/06/17 07:11:00;;;;;;;5.85;3.80;;;;;;;24.47;36.21;101665.41;4975213;28;20150;-78
2023/06/17 07:13:27;;;;;;;4.35;3.95;;;;;;;24.55;34.46;101671.00;4975414;28;20141;-76
2023/06/17 07:15:55;;;;;;;3.95;3.50;;;;;;;24.68;33.32;101673.06;4975728;28;20046;-76
2023/06/17 07:18:22;;;;;;;4.35;3.95;;;;;;;24.82;34.22;101666.41;4975119;28;20050;-77
2023/06/17 07:20:49;;;;;;;7.80;3.67;;;;;;;24.86;34.53;101659.41;4975746;28;20051;-76
2023/06/17 07:23:17;;;;;;;4.00;3.60;;;;;;;25.10;33.24;101658.59;4975254;28;20149;-75
2023/06/17 07:25:43;;;;;;;7.00;3.50;;;;;;;25.29;33.08;101660.50;4992792;28;20106;-75
2023/06/17 07:28:11;;;;;;;4.78;3.92;;;;;;;25.47;32.21;101663.19;4991667;28;20057;-75
2023/06/17 07:30:39;;;;;;;5.35;3.70;;;;;;;25.46;32.31;101660.97;4975187;28;20047;-75
2023/06/17 07:33:06;;;;;;;5.05;3.97;;;;;;;25.46;31.85;101666.41;4975482;28;20526;-76
2023/06/17 07:35:33;;;;;;;3.70;3.40;;;;;;;25.59;30.71;101661.00;4983428;28;20058;-75
2023/06/17 07:38:00;;;;;;;3.72;3.53;;;;;;;25.77;30.70;101657.44;4956439;28;20054;-75
2023/06/17 07:40:28;;;;;;;3.80;3.58;;;;;;;25.90;30.92;101665.66;4975259;28;20103;-75
2023/06/17 07:42:55;;;;;;;4.32;3.70;;;;;;;25.88;30.94;101659.97;4973648;28;20056;-75
2023/06/17 07:45:21;;;;;;;4.00;3.60;;;;;;;25.97;31.34;101658.81;4973640;28;20079;-77
2023/06/17 07:47:48;;;;;;;3.88;3.67;;;;;;;26.17;30.87;101660.16;4972553;28;20051;-76
2023/06/17 07:50:15;;;;;;;5.45;3.70;;;;;;;26.26;29.22;101654.28;4973606;28;20047;-76
2023/06/17 07:52:41;;;;;;;3.60;3.40;;;;;;;26.47;29.62;101654.34;4973172;28;20079;-75
2023/06/17 07:55:08;;;;;;;7.32;3.47;;;;;;;26.63;29.63;101647.06;4973026;28;20067;-76
2023/06/17 07:57:35;;;;;;;4.72;3.70;;;;;;;26.81;29.12;101646.13;4972906;28;20122;-73
2023/06/17 08:00:09;;;;;;;4.53;3.53;;;;;;;26.91;28.69;101647.88;4973149;28;20047;-73
2023/06/17 08:02:37;;;;;;;3.42;3.15;;;;;;;27.11;28.80;101649.16;4971262;28;20057;-73
2023/06/17 08:05:04;;;;;;;3.63;3.42;;;;;;;27.36;27.54;101646.06;4980708;28;20462;-73
2023/06/17 08:07:31;;;;;;;3.50;3.30;;;;;;;27.45;28.13;101651.06;4993401;28;20098;-73
2023/06/17 08:09:57;;;;;;;3.72;3.40;;;;;;;27.42;26.85;101650.13;4995132;28;20059;-74
2023/06/17 08:12:24;;;;;;;3.33;3.10;;;;;;;27.70;27.27;101651.41;4995417;28;20125;-73
2023/06/17 08:14:51;;;;;;;3.70;3.50;;;;;;;27.62;26.43;101656.81;4996473;28;20077;-73
2023/06/17 08:17:18;;;;;;;3.55;3.35;;;;;;;27.78;26.47;101655.66;4995540;28;20496;-75
2023/06/17 08:19:45;;;;;;;3.35;3.13;;;;;;;27.86;27.09;101655.69;4995238;28;20381;-74
2023/06/17 08:22:11;;;;;;;5.15;3.45;;;;;;;27.85;26.85;101654.97;4994991;28;20134;-73
2023/06/17 08:24:38;;;;;;;4.75;3.33;;;;;;;27.83;25.92;101652.03;4995285;28;20338;-74
2023/06/17 08:27:06;;;;;;;6.57;3.53;;;;;;;28.09;25.76;101651.06;4995761;28;20047;-76
2023/06/17 08:29:32;;;;;;;3.95;3.40;;;;;;;28.23;24.78;101648.22;4995347;28;20051;-78
2023/06/17 08:31:59;;;;;;;3.63;3.40;;;;;;;28.24;25.73;101646.94;4995680;28;20134;-81
2023/06/17 08:34:27;;;;;;;3.75;3.55;;;;;;;28.23;25.47;101642.75;4995326;28;20555;-77
2023/06/17 08:37:03;;;;;;;4.38;3.47;;;;;;;28.39;24.26;101641.53;4993331;28;20546;-78
2023/06/17 08:39:31;;;;;;;3.83;3.50;;;;;;;28.41;23.47;101642.41;4995605;28;20055;-77
2023/06/17 08:41:58;;;;;;;3.97;3.63;;;;;;;28.49;25.00;101647.91;4995550;28;20051;-77
2023/06/17 08:44:26;;;;;;;4.22;3.90;;;;;;;28.51;25.93;101648.09;4977490;28;20121;-77
2023/06/17 08:46:56;;;;;;;3.70;3.40;;;;;;;28.74;25.09;101645.44;4995360;28;20050;-77
2023/06/17 08:49:24;;;;;;;4.10;3.80;;;;;;;28.88;25.95;101644.00;5005033;28;20045;-77
2023/06/17 08:51:50;;;;;;;3.90;3.60;;;;;;;28.96;25.06;101633.75;4995143;28;20362;-78
2023/06/17 08:54:20;;;;;;;4.15;3.85;;;;;;;29.03;25.87;101637.78;4995531;28;20058;-78
2023/06/17 08:56:47;;;;;;;5.07;3.53;;;;;;;29.08;24.64;101645.09;4978105;28;20054;-78
2023/06/17 08:59:14;;;;;;;4.88;3.40;;;;;;;29.25;25.50;101644.53;4977429;28;20051;-78
2023/06/17 09:01:43;;;;;;;4.20;3.75;;;;;;;29.40;25.15;101637.03;4994891;28;20514;-78
2023/06/17 09:04:11;;;;;;;3.75;3.50;;;;;;;29.63;25.13;101642.47;4995248;28;20094;-78
2023/06/17 09:06:38;;;;;;;9.02;3.90;;;;;;;29.77;24.75;101646.47;4994563;28;20883;-78
2023/06/17 09:09:05;;;;;;;5.88;3.80;;;;;;;29.69;25.62;101637.53;4994995;28;20055;-78
2023/06/17 09:11:32;;;;;;;6.22;3.97;;;;;;;29.76;25.14;101636.03;4995080;28;20045;-78
2023/06/17 09:14:00;;;;;;;6.00;3.90;;;;;;;29.85;25.88;101640.97;4978064;28;20126;-78
2023/06/17 09:16:29;;;;;;;4.95;3.90;;;;;;;30.07;24.89;101645.63;4994445;28;20480;-77
2023/06/17 09:19:06;;;;;;;4.35;3.80;;;;;;;30.01;24.89;101645.13;4993749;28;20094;-78
2023/06/17 09:21:34;;;;;;;4.25;3.78;;;;;;;29.89;25.12;101646.06;4976790;28;20055;-78
2023/06/17 09:24:03;;;;;;;3.92;3.72;;;;;;;29.91;25.62;101646.25;5006986;28;20051;-78
2023/06/17 09:26:35;;;;;;;4.18;3.88;;;;;;;30.17;24.93;101649.25;4978469;28;20043;-77
2023/06/17 09:29:05;;;;;;;9.02;3.90;;;;;;;30.37;24.13;101649.53;4976984;28;20579;-77
2023/06/17 09:31:35;;;;;;;5.32;3.75;;;;;;;30.58;24.68;101647.22;4994900;28;20050;-77
2023/06/17 09:34:02;;;;;;;;;;;;;;;30.86;25.04;101640.59;4995473;28;20503;-78
2023/06/17 09:36:29;;;;;;;3.63;3.30;;;;;;;30.69;24.48;101648.81;4976613;28;19926;-77
2023/06/17 09:38:56;;;;;;;5.45;4.30;;;;;;;30.92;24.27;101645.88;4994463;28;20055;-77
2023/06/17 09:41:24;;;;;;;3.78;3.38;;;;;;;30.91;24.16;101639.66;4994538;28;20133;-76
2023/06/17 09:43:54;;;;;;;3.72;3.42;;;;;;;30.90;24.54;101640.94;4994855;28;20078;-83
2023/06/17 09:46:29;;;;;;;6.45;3.60;;;;;;;31.02;24.14;101650.19;4994590;28;20129;-79
2023/06/17 09:48:59;;;;;;;4.00;3.80;;;;;;;31.07;23.49;101649.25;4995159;28;20050;-81
2023/06/17 09:51:36;;;;;;;5.80;3.90;;;;;;;30.82;23.59;101640.25;4994843;28;20039;-80
2023/06/17 09:54:04;;;;;;;7.38;3.97;;;;;;;31.07;23.79;101643.00;4994363;28;20049;-77
2023/06/17 09:56:31;;;;;;;4.93;3.65;;;;;;;31.29;24.34;101646.84;4994160;28;20050;-76
2023/06/17 09:58:58;;;;;;;5.28;4.05;;;;;;;31.35;24.04;101642.59;5002384;28;20247;-76
2023/06/17 10:01:30;;;;;;;3.63;3.42;;;;;;;31.24;22.61;101643.03;4994442;28;20075;-75
2023/06/17 10:03:58;;;;;;;4.07;3.70;;;;;;;31.08;22.75;101636.22;4994330;28;20054;-76
2023/06/17 10:06:29;;;;;;;5.35;3.60;;;;;;;31.02;22.75;101636.44;4994172;28;20053;-76
2023/06/17 10:08:57;;;;;;;4.00;3.80;;;;;;;30.83;22.92;101633.47;4994172;28;20098;-75
2023/06/17 10:11:25;;;;;;;10.13;3.55;;;;;;;30.93;22.77;101626.06;4994017;28;20047;-76
2023/06/17 10:13:52;;;;;;;5.10;3.90;;;;;;;31.15;24.14;101632.72;4994319;28;20047;-75
2023/06/17 10:16:19;;;;;;;3.90;3.60;;;;;;;31.40;23.44;101633.38;4993762;28;20047;-76
2023/06/17 10:18:50;;;;;;;4.22;3.90;;;;;;;31.48;22.63;101630.53;4993678;28;20050;-76
2023/06/17 10:21:20;;;;;;;4.45;3.83;;;;;;;31.61;22.82;101630.19;4994349;28;20038;-77
2023/06/17 10:23:47;;;;;;;6.40;3.90;;;;;;;31.56;23.44;101620.19;4993583;28;20061;-76
2023/06/17 10:26:15;;;;;;;5.75;4.07;;;;;;;31.62;22.88;101619.91;4992971;28;20050;-75
2023/06/17 10:29:10;;;;;;;5.35;3.92;;;;;;;31.94;23.48;101611.50;4993529;28;20054;-77
2023/06/17 10:31:42;;;;;;;3.72;3.42;;;;;;;32.07;22.57;101613.16;4986608;28;20552;-77
2023/06/17 10:34:20;;;;;;;3.78;3.53;;;;;;;32.02;22.35;101609.34;5001996;28;20043;-76
2023/06/17 10:36:57;;;;;;;4.65;3.50;;;;;;;31.84;21.43;101610.69;4994415;28;20047;-75
2023/06/17 10:39:24;;;;;;;6.43;3.45;;;;;;;31.63;22.41;101599.34;4994120;28;20047;-76
2023/06/17 10:41:55;;;;;;;7.07;3.40;;;;;;;31.75;22.38;101601.06;4993880;28;20139;-77
2023/06/17 10:44:34;;;;;;;3.50;3.33;;;;;;;31.90;21.74;101596.69;4975862;28;20073;-77
2023/06/17 10:47:19;;;;;;;3.78;3.22;;;;;;;32.10;21.97;101606.50;4975712;28;20054;-77
2023/06/17 10:49:50;;;;;;;3.80;3.60;;;;;;;32.25;22.00;101600.09;4994044;28;20496;-76
2023/06/17 10:52:17;;;;;;;4.43;3.85;;;;;;;32.53;22.18;101596.72;4993915;28;20050;-77
2023/06/17 10:54:49;;;;;;;5.40;4.10;;;;;;;32.63;22.28;101594.72;4993742;28;20082;-78
2023/06/17 10:57:16;;;;;;;3.97;3.45;;;;;;;32.58;21.67;101598.47;4976050;28;20130;-77
2023/06/17 10:59:42;;;;;;;3.80;3.50;;;;;;;32.35;21.80;101592.59;4993230;28;20057;-76
2023/06/17 11:02:09;;;;;;;3.90;3.65;;;;;;;32.58;21.73;101578.44;4993507;28;20078;-77
2023/06/17 11:04:40;;;;;;;5.60;3.70;;;;;;;32.60;21.84;101584.84;4993298;28;20050;-76
2023/06/17 11:07:07;;;;;;;6.63;3.97;;;;;;;32.24;21.66;101591.09;4999972;28;20128;-77
2023/06/17 11:09:36;;;;;;;4.10;3.78;;;;;;;31.76;22.05;101585.28;4982428;28;20059;-77
2023/06/17 11:12:03;;;;;;;3.80;3.47;;;;;;;31.99;22.36;101580.19;4976746;28;20047;-77
2023/06/17 11:14:32;;;;;;;7.45;3.60;;;;;;;32.15;21.57;101586.22;4993354;28;20049;-76
2023/06/17 11:16:59;;;;;;;4.72;3.50;;;;;;;32.32;21.63;101580.69;4992921;28;21083;-76
2023/06/17 11:19:25;;;;;;;4.18;3.80;;;;;;;32.66;21.55;101579.78;4959399;28;20062;-78
2023/06/17 11:21:57;;;;;;;4.20;3.90;;;;;;;32.79;21.27;101567.66;4993525;28;20039;-78
2023/06/17 11:24:25;;;;;;;4.38;3.60;;;;;;;32.82;20.56;101569.25;5008325;28;20066;-78
2023/06/17 11:26:52;;;;;;;5.85;4.43;;;;;;;32.83;20.14;101558.94;4993446;28;20047;-77
2023/06/17 11:29:18;;;;;;;4.07;3.83;;;;;;;32.93;20.25;101562.44;4993154;28;20078;-78